Time;durP1;ratioP1;P1;durP2;ratioP2;P2;SDS_P1;SDS_P2;PMS_P1;PMS_P2;Temp;Humidity;BMP_temperature;BMP_pressure;BME280_temperature;BME280_humidity;BME280_pressure;Samples;Min_cycle;Max_cycle;Signal;HPM_P1;HPM_P2
2023/07/31 00:02:06;;;;;;;10.73;2.38;;;17.90;99.90;;;;;;4780564;29;20038;-87
2023/07/31 00:04:35;;;;;;;10.00;2.17;;;17.90;99.90;;;;;;4766315;29;20042;-87
2023/07/31 00:07:04;;;;;;;9.23;2.15;;;17.90;99.90;;;;;;4780641;29;20035;-87
2023/07/31 00:09:37;;;;;;;12.38;2.70;;;17.90;99.90;;;;;;4782205;29;20144;-87
2023/07/31 00:12:03;;;;;;;7.65;1.98;;;17.80;99.90;;;;;;4780380;29;20126;-87
2023/07/31 00:14:29;;;;;;;12.93;2.58;;;17.80;99.90;;;;;;4765529;29;20050;-87
2023/07/31 00:16:58;;;;;;;6.93;1.83;;;17.80;99.90;;;;;;4763356;29;20050;-87
2023/07/31 00:19:28;;;;;;;11.88;2.25;;;17.80;99.90;;;;;;4776671;30;20043;-87
2023/07/31 00:22:02;;;;;;;9.02;2.20;;;17.80;99.90;;;;;;4762602;30;20047;-87
2023/07/31 00:24:31;;;;;;;8.27;1.98;;;17.80;99.90;;;;;;4790867;30;20133;-87
2023/07/31 00:26:59;;;;;;;8.07;2.05;;;17.80;99.90;;;;;;4777468;30;20051;-87
2023/07/31 00:29:29;;;;;;;9.75;1.90;;;17.80;99.90;;;;;;4777094;30;20039;-88
2023/07/31 00:31:59;;;;;;;11.07;2.30;;;17.70;99.90;;;;;;4748222;30;20043;-87
2023/07/31 00:34:25;;;;;;;10.77;2.50;;;17.80;99.90;;;;;;4777032;30;20043;-87
2023/07/31 00:36:53;;;;;;;10.05;2.00;;;17.70;99.90;;;;;;4762728;30;20071;-88
2023/07/31 00:39:24;;;;;;;11.88;2.20;;;17.70;99.90;;;;;;4762402;30;20177;-87
2023/07/31 00:41:53;;;;;;;6.82;1.88;;;17.70;99.90;;;;;;4777495;30;20047;-87
2023/07/31 00:44:19;;;;;;;11.52;2.40;;;17.70;99.90;;;;;;4776783;30;20122;-87
2023/07/31 00:46:45;;;;;;;10.20;2.00;;;17.70;99.90;;;;;;4777133;30;20062;-87
2023/07/31 00:49:11;;;;;;;10.05;2.17;;;17.70;99.90;;;;;;4762056;30;20100;-87
2023/07/31 00:51:37;;;;;;;11.20;2.03;;;17.70;99.90;;;;;;4777749;29;20074;-86
2023/07/31 00:54:04;;;;;;;12.68;2.50;;;17.60;99.90;;;;;;4803042;29;20089;-87
2023/07/31 00:56:30;;;;;;;6.97;1.85;;;17.70;99.90;;;;;;4777037;30;20031;-87
2023/07/31 00:58:56;;;;;;;7.13;1.85;;;17.60;99.90;;;;;;4785295;29;20051;-87
2023/07/31 01:01:25;;;;;;;9.98;2.30;;;17.60;99.90;;;;;;4811104;29;20119;-87
2023/07/31 01:03:55;;;;;;;7.75;2.50;;;17.60;99.90;;;;;;4794693;29;20049;-87
2023/07/31 01:06:36;;;;;;;11.23;2.22;;;17.60;99.90;;;;;;4780062;29;20066;-87
2023/07/31 01:09:09;;;;;;;7.53;1.90;;;17.60;99.90;;;;;;4794097;29;20141;-87
2023/07/31 01:11:56;;;;;;;8.98;2.20;;;17.60;99.90;;;;;;4793962;29;20103;-87
2023/07/31 01:14:24;;;;;;;12.18;2.20;;;17.60;99.90;;;;;;4794094;29;20049;-87
2023/07/31 01:17:05;;;;;;;7.78;2.00;;;17.60;99.90;;;;;;4795321;29;20031;-86
2023/07/31 01:19:33;;;;;;;;;;;17.60;99.90;;;;;;4806121;29;20141;-87
2023/07/31 01:22:18;;;;;;;5.75;1.73;;;17.50;99.90;;;;;;4791259;30;19952;-87
2023/07/31 01:25:05;;;;;;;9.32;2.50;;;17.50;99.90;;;;;;4805841;29;20036;-86
2023/07/31 01:27:41;;;;;;;9.20;2.10;;;17.50;99.90;;;;;;4790786;30;20043;-87
2023/07/31 01:30:17;;;;;;;8.60;2.45;;;17.50;99.90;;;;;;4791182;30;20046;-87
2023/07/31 01:32:45;;;;;;;10.57;2.97;;;17.50;99.90;;;;;;4790797;30;20038;-87
2023/07/31 01:35:11;;;;;;;9.10;2.00;;;17.50;99.90;;;;;;4790928;30;20039;-87
2023/07/31 01:37:37;;;;;;;12.57;2.13;;;17.50;99.90;;;;;;4790409;30;20156;-87
2023/07/31 01:40:06;;;;;;;8.48;2.00;;;17.50;99.90;;;;;;4806073;29;20039;-87
2023/07/31 01:42:32;;;;;;;9.23;2.22;;;17.50;99.90;;;;;;4803043;29;20104;-87
2023/07/31 01:45:00;;;;;;;7.80;1.95;;;17.50;99.90;;;;;;4780196;29;20039;-87
2023/07/31 01:47:29;;;;;;;10.32;2.65;;;17.50;99.90;;;;;;4793700;29;20034;-87
2023/07/31 01:49:55;;;;;;;7.50;1.83;;;17.50;99.90;;;;;;4778384;29;20038;-87
2023/07/31 01:52:21;;;;;;;7.78;2.10;;;17.50;99.90;;;;;;4778186;29;20373;-88
2023/07/31 01:54:47;;;;;;;10.73;2.42;;;17.50;99.90;;;;;;4808512;29;20054;-88
2023/07/31 01:57:20;;;;;;;11.63;2.45;;;17.50;99.90;;;;;;4794200;29;20046;-88
2023/07/31 01:59:49;;;;;;;9.57;2.00;;;17.50;99.90;;;;;;4808822;29;20071;-87
2023/07/31 02:02:16;;;;;;;8.35;2.28;;;17.50;99.90;;;;;;4793643;29;20750;-87
2023/07/31 02:04:44;;;;;;;8.80;2.58;;;17.50;99.90;;;;;;4808298;29;20523;-87
2023/07/31 02:07:10;;;;;;;9.73;2.00;;;17.50;99.90;;;;;;4778482;29;20042;-88
2023/07/31 02:09:41;;;;;;;7.43;2.22;;;17.50;99.90;;;;;;4793788;29;20050;-87
2023/07/31 02:12:19;;;;;;;9.48;1.80;;;17.50;99.90;;;;;;4778601;29;20095;-88
2023/07/31 02:14:47;;;;;;;7.55;1.98;;;17.50;99.90;;;;;;4808183;29;20031;-88
2023/07/31 02:17:16;;;;;;;8.75;2.10;;;17.40;99.90;;;;;;4823120;29;20159;-87
2023/07/31 02:19:42;;;;;;;6.75;1.80;;;17.40;99.90;;;;;;4798092;29;20146;-87
2023/07/31 02:22:19;;;;;;;6.97;2.08;;;17.40;99.90;;;;;;4760485;30;20132;-87
2023/07/31 02:24:46;;;;;;;6.70;2.08;;;17.40;99.90;;;;;;4804473;29;20031;-87
2023/07/31 02:27:14;;;;;;;8.75;1.77;;;17.40;99.90;;;;;;4807371;29;20446;-87
2023/07/31 02:29:40;;;;;;;7.22;1.83;;;17.40;99.90;;;;;;4822988;29;20035;-86
2023/07/31 02:32:06;;;;;;;7.82;2.20;;;17.40;99.90;;;;;;4763419;29;20042;-86
2023/07/31 02:34:32;;;;;;;7.28;1.70;;;17.30;99.90;;;;;;4777674;29;20057;-86
2023/07/31 02:36:58;;;;;;;7.95;2.08;;;17.30;99.90;;;;;;4807764;29;20767;-86
2023/07/31 02:39:26;;;;;;;5.50;1.60;;;17.40;99.90;;;;;;4807487;29;20035;-86
2023/07/31 02:41:55;;;;;;;5.30;1.75;;;17.30;99.90;;;;;;4787687;29;20325;-87
2023/07/31 02:44:21;;;;;;;7.32;2.03;;;17.20;99.90;;;;;;4799762;29;20038;-86
2023/07/31 02:46:47;;;;;;;6.72;1.95;;;17.20;99.90;;;;;;4792478;29;20146;-87
2023/07/31 02:49:13;;;;;;;6.07;1.70;;;17.30;99.90;;;;;;4778264;29;20502;-86
2023/07/31 02:51:39;;;;;;;10.18;2.35;;;17.20;99.90;;;;;;4805914;29;20139;-86
2023/07/31 02:54:05;;;;;;;7.07;1.83;;;17.20;99.90;;;;;;4787697;29;20059;-86
2023/07/31 02:56:31;;;;;;;6.93;1.83;;;17.20;99.90;;;;;;4775860;29;20034;-86
2023/07/31 02:58:57;;;;;;;5.47;2.03;;;17.20;99.90;;;;;;4806376;29;20061;-87
2023/07/31 03:01:23;;;;;;;5.30;2.17;;;17.10;99.90;;;;;;4775821;29;20133;-87
2023/07/31 03:03:51;;;;;;;6.50;1.67;;;17.10;99.90;;;;;;4758622;29;20466;-87
2023/07/31 03:06:17;;;;;;;6.70;1.58;;;17.00;99.90;;;;;;4759514;30;20079;-87
2023/07/31 03:08:43;;;;;;;6.03;1.50;;;17.00;99.90;;;;;;4788686;29;20122;-87
2023/07/31 03:11:12;;;;;;;4.35;1.55;;;17.00;99.90;;;;;;4777144;29;20043;-86
2023/07/31 03:13:40;;;;;;;5.97;1.40;;;17.00;99.90;;;;;;4822306;29;20039;-87
2023/07/31 03:16:08;;;;;;;5.07;1.60;;;17.00;99.90;;;;;;4792643;29;20038;-87
2023/07/31 03:18:41;;;;;;;3.72;1.48;;;16.90;99.90;;;;;;4807465;29;20130;-87
2023/07/31 03:21:10;;;;;;;2.53;1.10;;;17.00;99.90;;;;;;4792951;29;20034;-87
2023/07/31 03:23:36;;;;;;;4.85;1.50;;;16.90;99.90;;;;;;4806001;29;20494;-87
2023/07/31 03:26:10;;;;;;;3.78;1.38;;;16.90;99.90;;;;;;4789599;29;20062;-87
2023/07/31 03:28:38;;;;;;;3.05;1.20;;;16.90;99.90;;;;;;4789237;30;20126;-87
2023/07/31 03:31:09;;;;;;;3.85;1.27;;;16.90;99.90;;;;;;4774428;30;20065;-87
2023/07/31 03:33:38;;;;;;;2.75;1.10;;;16.90;99.90;;;;;;4789702;29;20073;-87
2023/07/31 03:36:04;;;;;;;2.40;1.15;;;16.90;99.90;;;;;;4759749;30;20344;-87
2023/07/31 03:38:30;;;;;;;3.20;1.45;;;16.90;99.90;;;;;;4789189;29;20488;-86
2023/07/31 03:40:58;;;;;;;2.55;1.20;;;17.00;99.90;;;;;;4759736;30;20039;-86
2023/07/31 03:43:24;;;;;;;3.97;1.10;;;17.00;99.90;;;;;;4774252;30;20335;-86
2023/07/31 03:45:50;;;;;;;1.45;0.95;;;17.00;99.90;;;;;;4759351;30;20047;-86
2023/07/31 03:48:19;;;;;;;3.85;1.20;;;17.00;99.90;;;;;;4786552;29;20047;-86
2023/07/31 03:50:45;;;;;;;2.55;1.08;;;17.00;99.90;;;;;;4773838;30;20043;-86
2023/07/31 03:53:11;;;;;;;2.88;0.90;;;17.00;99.90;;;;;;4788610;30;20054;-86
2023/07/31 03:55:37;;;;;;;1.73;1.00;;;17.00;99.90;;;;;;4773869;30;20055;-86
2023/07/31 03:58:03;;;;;;;3.28;1.20;;;17.00;99.90;;;;;;4773994;30;20386;-86
2023/07/31 04:00:29;;;;;;;1.95;1.05;;;17.00;99.90;;;;;;4774273;30;20054;-86
2023/07/31 04:02:55;;;;;;;2.20;0.90;;;17.00;99.90;;;;;;4773994;30;20096;-86
2023/07/31 04:05:21;;;;;;;2.15;0.90;;;17.00;99.90;;;;;;4774177;30;20044;-86
2023/07/31 04:07:47;;;;;;;2.55;1.00;;;17.10;99.90;;;;;;4773735;30;20389;-86
2023/07/31 04:10:13;;;;;;;1.80;1.00;;;17.10;99.90;;;;;;4774104;30;20043;-86
2023/07/31 04:12:39;;;;;;;4.00;1.10;;;17.10;99.90;;;;;;4773874;30;20343;-87
2023/07/31 04:15:06;;;;;;;2.15;0.93;;;17.10;99.90;;;;;;4759420;30;20039;-86
2023/07/31 04:17:32;;;;;;;5.03;1.60;;;17.10;99.90;;;;;;4789041;29;20156;-88
2023/07/31 04:20:00;;;;;;;5.10;1.63;;;17.10;99.90;;;;;;4805735;29;20042;-86
2023/07/31 04:22:27;;;;;;;5.25;1.60;;;17.00;99.90;;;;;;4791243;29;20043;-86
2023/07/31 04:24:53;;;;;;;6.20;2.15;;;17.00;99.90;;;;;;4806756;29;20046;-86
2023/07/31 04:27:19;;;;;;;9.75;2.50;;;17.00;99.90;;;;;;4806518;29;20031;-87
2023/07/31 04:29:48;;;;;;;9.77;3.10;;;17.00;99.90;;;;;;4806392;29;20043;-87
2023/07/31 04:32:16;;;;;;;9.77;3.35;;;17.00;99.90;;;;;;4791784;29;20375;-86
2023/07/31 04:34:43;;;;;;;12.75;4.35;;;17.00;99.90;;;;;;4793279;29;20034;-86
2023/07/31 04:37:13;;;;;;;13.32;4.20;;;17.00;99.90;;;;;;4809921;29;20031;-86
2023/07/31 04:39:40;;;;;;;15.60;4.15;;;17.00;99.90;;;;;;4809733;29;20102;-86
2023/07/31 04:42:06;;;;;;;15.52;4.65;;;17.00;99.90;;;;;;4810064;29;20042;-86
2023/07/31 04:44:35;;;;;;;12.25;4.63;;;17.00;99.90;;;;;;4824333;29;20118;-86
2023/07/31 04:47:02;;;;;;;12.85;5.03;;;17.00;99.90;;;;;;4791709;30;20036;-86
2023/07/31 04:49:38;;;;;;;15.52;5.05;;;17.00;99.90;;;;;;4791795;30;20085;-86
2023/07/31 04:52:04;;;;;;;12.07;4.38;;;17.00;99.90;;;;;;4791591;30;20043;-86
2023/07/31 04:54:30;;;;;;;14.50;4.45;;;17.00;99.90;;;;;;4791237;30;20335;-86
2023/07/31 04:56:58;;;;;;;13.85;4.50;;;17.00;99.90;;;;;;4791315;29;20054;-86
2023/07/31 04:59:24;;;;;;;12.68;4.25;;;17.00;99.90;;;;;;4776262;30;20051;-86
2023/07/31 05:01:53;;;;;;;13.38;4.43;;;17.00;99.90;;;;;;4791265;30;20063;-86
2023/07/31 05:04:18;;;;;;;12.50;4.32;;;17.00;99.90;;;;;;4806314;29;20062;-86
2023/07/31 05:06:44;;;;;;;14.18;3.85;;;17.00;99.90;;;;;;4791443;30;20072;-86
2023/07/31 05:09:10;;;;;;;12.77;4.30;;;17.00;99.90;;;;;;4791044;30;20089;-86
2023/07/31 05:11:40;;;;;;;12.38;4.28;;;17.00;99.90;;;;;;4776151;30;20543;-86
2023/07/31 05:14:26;;;;;;;13.93;4.32;;;17.00;99.90;;;;;;4803043;29;20039;-86
2023/07/31 05:16:55;;;;;;;13.88;4.93;;;17.00;99.90;;;;;;4747633;30;20054;-86
2023/07/31 05:19:23;;;;;;;15.95;5.00;;;17.00;99.90;;;;;;4786560;29;20435;-87
2023/07/31 05:21:51;;;;;;;15.45;5.05;;;17.00;99.90;;;;;;4805687;29;20047;-87
2023/07/31 05:24:17;;;;;;;18.73;6.00;;;17.10;99.90;;;;;;4763026;29;20036;-87
2023/07/31 05:26:43;;;;;;;22.10;5.50;;;17.00;99.90;;;;;;4779293;29;20043;-87
2023/07/31 05:29:09;;;;;;;18.55;5.50;;;17.00;99.90;;;;;;4794227;29;20320;-87
2023/07/31 05:31:35;;;;;;;18.58;5.82;;;17.10;99.90;;;;;;4779005;29;20042;-87
2023/07/31 05:34:01;;;;;;;19.08;6.45;;;17.10;99.90;;;;;;4823870;29;20038;-86
2023/07/31 05:36:27;;;;;;;17.23;5.82;;;17.10;99.90;;;;;;4823699;29;20031;-87
2023/07/31 05:38:53;;;;;;;22.13;6.63;;;17.10;99.90;;;;;;4793466;29;20050;-87
2023/07/31 05:41:19;;;;;;;19.83;6.72;;;17.10;99.90;;;;;;4779215;29;20472;-87
2023/07/31 05:43:45;;;;;;;19.60;6.63;;;17.10;99.90;;;;;;4793545;29;20409;-87
2023/07/31 05:46:11;;;;;;;19.80;6.72;;;17.20;99.90;;;;;;4778708;29;20038;-86
2023/07/31 05:48:38;;;;;;;18.05;6.60;;;17.20;99.90;;;;;;4808499;29;20030;-87
2023/07/31 05:51:07;;;;;;;20.70;6.60;;;17.20;99.90;;;;;;4778799;29;20038;-87
2023/07/31 05:53:38;;;;;;;18.63;6.90;;;17.20;99.90;;;;;;4808376;29;20109;-87
2023/07/31 05:56:04;;;;;;;15.07;5.22;;;17.20;99.90;;;;;;4793665;29;20053;-87
2023/07/31 05:58:32;;;;;;;9.90;3.65;;;17.20;99.90;;;;;;4808151;29;20074;-87
2023/07/31 06:00:58;;;;;;;11.15;3.58;;;17.20;99.90;;;;;;4808442;29;20034;-87
2023/07/31 06:03:30;;;;;;;9.68;3.08;;;17.20;99.90;;;;;;4793999;29;20031;-86
2023/07/31 06:05:56;;;;;;;8.07;2.90;;;17.20;99.90;;;;;;4793475;29;20043;-87
2023/07/31 06:08:29;;;;;;;11.65;3.42;;;17.10;99.90;;;;;;4808156;29;20129;-87
2023/07/31 06:11:00;;;;;;;9.25;3.03;;;17.10;99.90;;;;;;4793561;29;20099;-86
2023/07/31 06:13:29;;;;;;;9.38;3.30;;;17.10;99.90;;;;;;4793763;29;20058;-87
2023/07/31 06:15:59;;;;;;;8.25;3.20;;;17.20;99.90;;;;;;4778619;29;20031;-87
2023/07/31 06:18:25;;;;;;;12.70;3.45;;;17.20;99.90;;;;;;4793404;29;20035;-86
2023/07/31 06:20:53;;;;;;;10.65;3.90;;;17.20;99.90;;;;;;4778467;29;20042;-87
2023/07/31 06:23:29;;;;;;;10.68;3.80;;;17.20;99.90;;;;;;4779219;29;20439;-87
2023/07/31 06:26:03;;;;;;;11.88;3.78;;;17.10;99.90;;;;;;4793074;29;20439;-88
2023/07/31 06:28:32;;;;;;;15.32;4.50;;;17.20;99.90;;;;;;4793146;29;20504;-88
2023/07/31 06:31:05;;;;;;;14.80;4.28;;;17.20;99.90;;;;;;4778303;29;20339;-88
2023/07/31 06:33:32;;;;;;;13.10;4.72;;;17.20;99.90;;;;;;4792255;29;20416;-87
2023/07/31 06:35:58;;;;;;;15.90;5.43;;;17.30;99.90;;;;;;4774614;30;20173;-87
2023/07/31 06:38:29;;;;;;;16.92;5.28;;;17.30;99.90;;;;;;4757651;30;20457;-87
2023/07/31 06:40:55;;;;;;;15.32;5.63;;;17.30;99.90;;;;;;4774894;30;20060;-88
2023/07/31 06:43:23;;;;;;;17.65;4.90;;;17.30;99.90;;;;;;4789487;30;20435;-88
2023/07/31 06:45:51;;;;;;;17.60;5.13;;;17.30;99.90;;;;;;4774321;30;20055;-87
2023/07/31 06:48:17;;;;;;;16.33;5.07;;;17.30;99.90;;;;;;4792127;29;20073;-89
2023/07/31 06:50:43;;;;;;;13.50;5.22;;;17.30;99.90;;;;;;4791885;29;20049;-88
2023/07/31 06:53:09;;;;;;;13.27;4.68;;;17.30;99.90;;;;;;4777000;29;20256;-88
2023/07/31 06:55:42;;;;;;;14.27;4.82;;;17.30;99.90;;;;;;4778106;29;20035;-87
2023/07/31 06:58:08;;;;;;;14.10;4.65;;;17.30;99.90;;;;;;4806082;29;20427;-86
2023/07/31 07:00:34;;;;;;;12.13;3.80;;;17.30;99.90;;;;;;4792476;29;20050;-88
2023/07/31 07:03:03;;;;;;;9.68;3.55;;;17.40;99.90;;;;;;4792062;29;20089;-88
2023/07/31 07:05:31;;;;;;;6.20;2.92;;;17.30;99.90;;;;;;4792802;29;20046;-88
2023/07/31 07:08:04;;;;;;;8.65;3.58;;;17.40;99.90;;;;;;4792510;29;20050;-88
2023/07/31 07:10:30;;;;;;;7.68;3.03;;;17.40;99.90;;;;;;4806567;29;20043;-88
2023/07/31 07:12:56;;;;;;;8.15;3.15;;;17.40;99.90;;;;;;4807345;29;20031;-88
2023/07/31 07:15:28;;;;;;;7.85;2.65;;;17.50;99.90;;;;;;4778044;29;20041;-88
2023/07/31 07:18:07;;;;;;;6.15;2.50;;;17.50;99.90;;;;;;4793097;29;20458;-88
2023/07/31 07:20:35;;;;;;;6.63;2.55;;;17.50;99.90;;;;;;4792696;29;20099;-88
2023/07/31 07:23:12;;;;;;;5.90;1.80;;;17.60;99.90;;;;;;4793234;29;20038;-88
2023/07/31 07:25:47;;;;;;;3.97;1.73;;;17.60;99.90;;;;;;4792629;29;20119;-87
2023/07/31 07:28:15;;;;;;;4.97;1.90;;;17.60;99.90;;;;;;4806241;29;20074;-87
2023/07/31 07:30:52;;;;;;;7.25;2.17;;;17.60;99.90;;;;;;4792889;29;20035;-87
2023/07/31 07:33:23;;;;;;;6.35;2.17;;;17.70;99.90;;;;;;4792695;29;20339;-87
2023/07/31 07:35:56;;;;;;;6.28;2.05;;;17.70;99.90;;;;;;4791806;29;20043;-87
2023/07/31 07:38:24;;;;;;;6.65;1.98;;;17.70;99.90;;;;;;4805766;29;20466;-87
2023/07/31 07:40:54;;;;;;;3.67;1.73;;;17.80;99.90;;;;;;4788474;30;20057;-87
2023/07/31 07:43:43;;;;;;;4.40;1.83;;;17.80;99.90;;;;;;4803941;29;20051;-88
2023/07/31 07:46:11;;;;;;;;;;;17.80;99.90;;;;;;4786650;29;20031;-87
2023/07/31 07:48:40;;;;;;;3.35;1.50;;;17.80;99.90;;;;;;4797321;29;19966;-88
2023/07/31 07:51:09;;;;;;;3.40;1.33;;;17.80;99.90;;;;;;4791523;29;20457;-87
2023/07/31 07:53:40;;;;;;;2.67;1.10;;;17.90;99.90;;;;;;4805810;29;20035;-87
2023/07/31 07:56:06;;;;;;;3.38;1.20;;;17.90;99.90;;;;;;4789007;29;20465;-88
2023/07/31 07:58:32;;;;;;;1.67;1.00;;;18.00;99.90;;;;;;4789241;29;20435;-88
2023/07/31 08:01:05;;;;;;;3.13;1.15;;;18.00;99.90;;;;;;4792130;29;20046;-88
2023/07/31 08:03:37;;;;;;;1.98;0.90;;;18.00;99.90;;;;;;4790430;29;20039;-88
2023/07/31 08:06:11;;;;;;;3.38;1.00;;;18.10;99.90;;;;;;4806899;29;20122;-87
2023/07/31 08:09:08;;;;;;;;;;;;;;;;;;;;;
2023/07/31 08:11:41;;;;;;;2.13;1.00;;;18.10;99.90;;;;;;4810981;29;20038;-88
2023/07/31 08:14:23;;;;;;;3.42;1.20;;;18.10;99.90;;;;;;4809713;29;20039;-88
2023/07/31 08:17:06;;;;;;;3.22;1.10;;;18.20;99.90;;;;;;4796949;29;20046;-88
2023/07/31 08:19:49;;;;;;;4.55;1.15;;;18.20;99.90;;;;;;4796384;29;20488;-87
2023/07/31 08:22:15;;;;;;;5.07;1.30;;;18.30;99.90;;;;;;4780500;29;20439;-90
2023/07/31 08:25:03;;;;;;;8.23;1.48;;;18.30;99.90;;;;;;4808319;29;20035;-90
2023/07/31 08:27:47;;;;;;;;;;;;;;;;;;;;;
2023/07/31 08:30:26;;;;;;;6.68;1.50;;;18.50;99.90;;;;;;4824935;29;20034;-89
2023/07/31 08:33:14;;;;;;;7.88;1.40;;;18.60;99.90;;;;;;4783716;29;20447;-89
2023/07/31 08:35:42;;;;;;;5.80;1.10;;;18.60;99.90;;;;;;4780920;29;20079;-89
2023/07/31 08:38:26;;;;;;;;;;;;;;;;;;;;;
2023/07/31 08:41:00;;;;;;;6.78;1.38;;;18.60;99.90;;;;;;4778491;30;20049;-89
2023/07/31 08:43:42;;;;;;;3.17;1.13;;;18.60;99.90;;;;;;4797618;29;20045;-89
2023/07/31 08:46:18;;;;;;;4.78;1.38;;;18.60;99.90;;;;;;4791874;29;20035;-90
2023/07/31 08:48:45;;;;;;;3.45;1.10;;;18.60;99.90;;;;;;4778609;30;20047;-89
2023/07/31 08:51:15;;;;;;;4.85;1.30;;;18.70;99.90;;;;;;4791850;29;20043;-89
2023/07/31 08:53:47;;;;;;;4.45;1.10;;;18.70;99.90;;;;;;4794957;29;20062;-89
2023/07/31 08:56:14;;;;;;;4.72;1.17;;;18.70;99.90;;;;;;4795075;29;20138;-90
2023/07/31 08:58:51;;;;;;;5.63;1.15;;;18.70;99.90;;;;;;4810015;29;20145;-89
2023/07/31 09:01:26;;;;;;;2.88;1.05;;;18.60;99.90;;;;;;4796302;29;20043;-89
2023/07/31 09:03:53;;;;;;;3.95;1.05;;;18.70;99.90;;;;;;4809668;29;20064;-90
2023/07/31 09:06:27;;;;;;;4.68;1.00;;;18.70;99.90;;;;;;4809763;29;20435;-88
2023/07/31 09:08:55;;;;;;;2.28;0.85;;;18.60;99.90;;;;;;4824764;29;20038;-89
2023/07/31 09:11:29;;;;;;;1.98;0.90;;;18.50;99.90;;;;;;4794333;29;20039;-89
2023/07/31 09:14:08;;;;;;;;;;;;;;;;;;;;;
2023/07/31 09:16:56;;;;;;;3.78;1.05;;;18.40;99.90;;;;;;4795031;29;20103;-89
2023/07/31 09:19:42;;;;;;;2.47;0.95;;;18.50;99.90;;;;;;4783252;29;20122;-89
2023/07/31 09:22:10;;;;;;;3.47;0.98;;;18.40;99.90;;;;;;4809353;29;20043;-89
2023/07/31 09:25:22;;;;;;;4.35;1.10;;;18.40;99.90;;;;;;4810112;29;20046;-89
2023/07/31 09:27:57;;;;;;;3.25;0.90;;;18.30;99.90;;;;;;4794899;29;20066;-89
2023/07/31 09:30:26;;;;;;;2.65;1.05;;;18.20;99.90;;;;;;4809359;29;20042;-89
2023/07/31 09:33:13;;;;;;;;;;;;;;;;;;;;;
2023/07/31 09:35:42;;;;;;;1.13;0.70;;;18.20;99.90;;;;;;4809157;29;20066;-89
2023/07/31 09:38:23;;;;;;;2.45;0.95;;;18.20;99.90;;;;;;4779288;29;20093;-89
2023/07/31 09:40:52;;;;;;;1.98;0.88;;;18.30;99.90;;;;;;4809892;29;20284;-89
2023/07/31 09:43:20;;;;;;;2.20;0.82;;;18.20;99.90;;;;;;4779730;29;20042;-88
2023/07/31 09:45:46;;;;;;;3.13;0.98;;;18.30;99.90;;;;;;4794723;29;20297;-89
2023/07/31 09:48:21;;;;;;;1.95;1.10;;;18.30;99.90;;;;;;4794223;29;20368;-89
2023/07/31 09:50:54;;;;;;;2.28;0.80;;;18.30;99.90;;;;;;4778705;29;20035;-90
2023/07/31 09:53:30;;;;;;;3.33;1.20;;;18.30;99.90;;;;;;4807287;29;20067;-89
2023/07/31 09:56:02;;;;;;;3.95;1.20;;;18.40;99.90;;;;;;4793435;29;20110;-87
2023/07/31 09:58:29;;;;;;;4.68;1.23;;;18.40;99.90;;;;;;4792586;29;20063;-88
2023/07/31 10:00:59;;;;;;;5.60;1.42;;;18.50;99.90;;;;;;4777718;29;20051;-87
2023/07/31 10:03:29;;;;;;;5.15;1.33;;;18.50;99.90;;;;;;4807298;29;20435;-89
2023/07/31 10:06:24;;;;;;;;;;;;;;;;;;;;;
2023/07/31 10:08:57;;;;;;;4.50;1.48;;;18.60;99.90;;;;;;4789465;29;20055;-88
2023/07/31 10:11:44;;;;;;;8.18;1.90;;;18.70;99.90;;;;;;4789670;29;20048;-88
2023/07/31 10:14:14;;;;;;;5.35;1.77;;;18.70;99.90;;;;;;4789121;30;20447;-88
2023/07/31 10:16:44;;;;;;;9.35;2.03;;;18.70;99.90;;;;;;4789483;29;20031;-86
2023/07/31 10:19:10;;;;;;;9.43;2.50;;;18.80;99.90;;;;;;4774557;30;20116;-86
2023/07/31 10:21:49;;;;;;;5.60;1.42;;;18.80;99.90;;;;;;4788983;29;20088;-88
2023/07/31 10:24:26;;;;;;;6.28;1.27;;;18.80;99.90;;;;;;4773115;29;20047;-88
2023/07/31 10:27:03;;;;;;;6.15;1.38;;;18.70;99.90;;;;;;4790554;29;20047;-89
2023/07/31 10:29:46;;;;;;;5.57;1.13;;;18.70;99.90;;;;;;4780390;29;20045;-88
2023/07/31 10:32:19;;;;;;;6.20;1.10;;;18.70;99.90;;;;;;4790890;29;20502;-90
2023/07/31 10:35:17;;;;;;;3.55;1.23;;;18.70;99.90;;;;;;4808503;29;20133;-88
2023/07/31 10:38:11;;;;;;;7.10;1.50;;;18.70;99.90;;;;;;4793617;29;20122;-87
2023/07/31 10:40:45;;;;;;;5.47;1.67;;;18.80;99.90;;;;;;4807607;29;20046;-87
2023/07/31 10:43:30;;;;;;;8.13;2.00;;;18.80;99.90;;;;;;4772834;30;20039;-87
2023/07/31 10:46:15;;;;;;;;;;;;;;;;;;;;;
2023/07/31 10:48:45;;;;;;;10.52;2.10;;;18.90;99.90;;;;;;4782237;29;20035;-89
2023/07/31 10:51:34;;;;;;;6.93;2.10;;;18.90;99.90;;;;;;4793685;29;20042;-89
2023/07/31 10:54:18;;;;;;;3.95;1.60;;;19.00;99.90;;;;;;4808253;29;20106;-88
2023/07/31 10:56:52;;;;;;;5.40;1.65;;;19.10;99.90;;;;;;4803920;29;20043;-88
2023/07/31 10:59:37;;;;;;;5.63;1.77;;;19.20;99.90;;;;;;4775004;30;20047;-88
2023/07/31 11:02:23;;;;;;;3.35;1.45;;;19.20;99.90;;;;;;4789537;29;20286;-88
2023/07/31 11:05:09;;;;;;;6.30;1.70;;;19.10;99.90;;;;;;4789849;30;20386;-88
2023/07/31 11:07:56;;;;;;;4.88;1.58;;;19.20;99.90;;;;;;4779078;29;20081;-88
2023/07/31 11:10:25;;;;;;;5.60;1.70;;;19.20;99.90;;;;;;4777869;29;20100;-88
2023/07/31 11:12:56;;;;;;;4.57;1.60;;;19.20;99.90;;;;;;4793000;29;20046;-88
2023/07/31 11:15:27;;;;;;;4.75;1.67;;;19.10;99.90;;;;;;4793082;29;20066;-89
2023/07/31 11:17:57;;;;;;;6.65;1.70;;;19.10;99.90;;;;;;4792667;29;20031;-89
2023/07/31 11:20:36;;;;;;;10.02;2.05;;;19.10;99.90;;;;;;4794104;29;20045;-89
2023/07/31 11:23:11;;;;;;;6.63;2.30;;;19.00;99.90;;;;;;4807373;29;20059;-90
2023/07/31 11:26:06;;;;;;;7.80;2.28;;;19.10;99.90;;;;;;4794922;29;20081;-89
2023/07/31 11:28:37;;;;;;;5.90;1.95;;;19.10;99.90;;;;;;4792618;29;20034;-89
2023/07/31 11:31:10;;;;;;;8.27;2.08;;;19.20;99.90;;;;;;4778280;29;20039;-89
2023/07/31 11:33:44;;;;;;;8.93;2.67;;;19.20;99.90;;;;;;4793428;29;20104;-88
2023/07/31 11:36:23;;;;;;;7.22;2.00;;;19.10;99.90;;;;;;4792568;29;20106;-89
2023/07/31 11:38:52;;;;;;;4.55;1.67;;;19.20;99.90;;;;;;4792682;29;20119;-89
2023/07/31 11:41:32;;;;;;;4.85;1.40;;;19.30;99.90;;;;;;4794355;29;20390;-89
2023/07/31 11:44:09;;;;;;;5.05;1.75;;;19.30;99.90;;;;;;4795674;29;20319;-89
2023/07/31 11:46:49;;;;;;;;;;;;;;;;;;;;;
2023/07/31 11:49:30;;;;;;;6.28;1.70;;;19.40;99.90;;;;;;4797324;29;20062;-89
2023/07/31 11:52:08;;;;;;;4.72;1.40;;;19.50;99.90;;;;;;4783379;29;20108;-89
2023/07/31 11:54:37;;;;;;;4.03;1.50;;;19.60;99.90;;;;;;4781887;29;20043;-89
2023/07/31 11:57:06;;;;;;;7.97;2.08;;;19.60;99.90;;;;;;4795896;29;20035;-89
2023/07/31 11:59:43;;;;;;;6.32;1.88;;;19.50;99.90;;;;;;4797386;29;20099;-89
2023/07/31 12:02:22;;;;;;;;;;;;;;;;;;;;;
2023/07/31 12:05:00;;;;;;;8.10;2.05;;;19.50;99.90;;;;;;4811463;29;20042;-89
2023/07/31 12:07:26;;;;;;;9.65;2.28;;;19.50;99.90;;;;;;4795407;29;20039;-90
2023/07/31 12:09:57;;;;;;;11.50;2.30;;;19.50;99.90;;;;;;4796673;29;20043;-90
2023/07/31 12:12:36;;;;;;;;;;;;;;;;;;;;;
2023/07/31 12:15:38;;;;;;;9.40;2.30;;;19.60;99.90;;;;;;4821640;29;20064;-90
2023/07/31 12:18:11;;;;;;;10.38;2.60;;;19.60;99.90;;;;;;4796654;29;20059;-90
2023/07/31 12:21:00;;;;;;;12.25;2.47;;;19.60;99.90;;;;;;4811875;29;20050;-89
2023/07/31 12:23:37;;;;;;;10.35;3.00;;;19.60;99.90;;;;;;4797273;29;20089;-89
2023/07/31 12:26:16;;;;;;;14.40;3.58;;;19.60;99.90;;;;;;4764135;30;20141;-89
2023/07/31 12:28:54;;;;;;;10.88;3.03;;;19.60;99.90;;;;;;4777720;30;20043;-90
2023/07/31 12:31:42;;;;;;;12.95;3.08;;;19.60;99.90;;;;;;4784032;29;20081;-89
2023/07/31 12:34:18;;;;;;;15.32;4.05;;;19.60;99.90;;;;;;4794311;29;20038;-89
2023/07/31 12:36:50;;;;;;;17.05;3.00;;;19.60;99.90;;;;;;4803335;29;20343;-89
2023/07/31 12:39:16;;;;;;;12.70;2.80;;;19.50;99.90;;;;;;4790873;29;20038;-88
2023/07/31 12:41:47;;;;;;;15.85;3.58;;;19.50;99.90;;;;;;4776435;30;20718;-88
2023/07/31 12:44:15;;;;;;;15.70;3.60;;;19.50;99.90;;;;;;4793279;29;20134;-89
2023/07/31 12:46:41;;;;;;;11.73;3.28;;;19.60;99.90;;;;;;4794984;29;20035;-88
2023/07/31 12:49:12;;;;;;;13.15;3.25;;;19.50;99.90;;;;;;4794580;29;20431;-87
2023/07/31 12:52:05;;;;;;;12.63;2.83;;;19.50;99.90;;;;;;4778729;29;20439;-90
2023/07/31 12:54:58;;;;;;;12.15;2.53;;;19.60;99.90;;;;;;4807924;29;20133;-88
2023/07/31 12:57:24;;;;;;;12.15;3.20;;;19.50;99.90;;;;;;4779480;29;20133;-87
2023/07/31 12:59:52;;;;;;;12.95;3.22;;;19.50;99.90;;;;;;4790282;30;20070;-86
2023/07/31 13:02:48;;;;;;;11.13;3.08;;;19.50;99.90;;;;;;4772072;29;20069;-87
2023/07/31 13:05:28;;;;;;;12.90;2.88;;;19.60;99.90;;;;;;4806175;29;20453;-87
2023/07/31 13:07:54;;;;;;;9.77;2.70;;;19.60;99.90;;;;;;4793069;29;20039;-87
2023/07/31 13:10:24;;;;;;;11.63;2.80;;;19.70;99.90;;;;;;4793031;29;20124;-87
2023/07/31 13:12:50;;;;;;;9.45;2.83;;;19.70;99.90;;;;;;4793068;29;20042;-89
2023/07/31 13:15:30;;;;;;;11.38;2.90;;;19.80;99.90;;;;;;4806965;29;20035;-87
2023/07/31 13:17:59;;;;;;;10.65;2.95;;;19.80;99.90;;;;;;4806748;29;20435;-88
2023/07/31 13:20:26;;;;;;;13.43;2.88;;;19.90;99.90;;;;;;4777861;29;20122;-88